Accueil
METAR-TAF:

METAR-TAF

Aéroports :

Cabo San Lucas, Mexique

latitude: 22-56-51N, longitude: 109-56-13W, altitude: 210 m

Observation

Le bulletin a été fait il y a 7 heures et 50 minutes, à 02:44 UTC
Vent calme
Température 20°C
Humidité 64%
Pression 1016 hPa
Visibilité: 11.3 km
Ciel clair

METAR: MMSL 200244Z 00000KT 7SM SKC 20/13 A3000

Heure: 03:34 (10:34 UTC)

Prévision

Le bulletin a été fait il y a 6 heures et 7 minutes, à 04:27 UTC
Prévision valable du 20 à 06 UTC au 21 à 06 UTC
Vent kt de nord
Visibilité: 10 km
Ciel clair
A partir de 20 à 1800 UTC
Vent 10 kt de ouest/sud-ouest
Visibilité: 10 km
Nuages fragmentés à une hauteur de 25000 ft
A partir de 21 à 0500 UTC
Vent kt de nord
Visibilité: 10 km
Ciel clair

TAF: MMSL 200427Z 2006/2106 00000KT P6SM SKC FM201800 25010KT P6SM BKN250 FM210500 00000KT P6SM SKC

Observations et prévisions météorologiques de plus de 4000 aéroports (messages METAR et TAF).

Les stations disponibles sont représentées par des disques jaunes et rouges sur la carte.

Passer la souris dessus pour voir le nom de la station.

Cliquer dessus pour voir les observations et prévisions météorologiques.

Pour changer de carte: cliquez sur les boutons verts avec une croix noire pour zoomer, sur le bouton vert avec un tiret pour effectuer un zoom arrière, ou sur les flèches vertes pour les cartes adjacentes.


METAR-TAF: